Latest Weather Observations for Lucas Heights (ANSTO)

IDN60901

Issued at 1:41 am EDT Monday 18 February 2019 (issued every 10 minutes, with the page automatically refreshed every 10 minutes)

About weather observations | Map of Sydney area stations | Latest observations for Sydney area | Other Formats
Station Details ID: 066023 Name: LUCAS HEIGHTS (ANSTO) Lat: -34.05 Lon: 150.98 Height: 140.0 m
Data from the previous 72 hours. | See also: Recent months for locations in New South Wales
Date/Time
EDT
Temp
°C
App
Temp
°C
Dew
Point
°C
Rel
Hum
%
Delta-T
°C
Wind Press
QNH
hPa
Press
MSL
hPa
Rain since
9am
mm
Dir  Spd
km/h
Gust
km/h
Spd
kts
Gust
kts
18/01:30am 20.4 20.6 17.6 84 1.7 ENE 13 15 7 8 1010.8 - 0.0
18/01:15am 20.4 20.7 17.1 81 2.0 ENE 11 15 6 8 1011.0 - 0.0
18/01:00am 20.8 21.8 17.8 83 1.9 ENE 9 11 5 6 1011.3 - 0.0
18/12:45am 20.8 22.1 17.6 82 2.0 NE 7 9 4 5 1011.5 - 0.0
18/12:30am 20.8 21.6 17.4 81 2.1 ENE 9 11 5 6 1011.6 - 0.0
18/12:15am 21.1 21.9 17.4 79 2.3 NE 9 13 5 7 1011.6 - 0.0
18/12:00am 21.4 21.9 17.5 78 2.4 NE 11 13 6 7 1011.8 - 0.0
 
Date/Time
EDT
Temp
°C
App
Temp
°C
Dew
Point
°C
Rel
Hum
%
Delta-T
°C
Wind Press
QNH
hPa
Press
MSL
hPa
Rain since
9am
mm
Dir  Spd
km/h
Gust
km/h
Spd
kts
Gust
kts
17/11:45pm 21.6 22.4 17.4 77 2.6 NE 9 13 5 7 1011.9 - 0.0
17/11:30pm 21.7 22.2 17.4 76 2.7 NE 11 15 6 8 1012.0 - 0.0
17/11:15pm 22.1 22.6 17.4 74 2.9 NE 11 15 6 8 1012.2 - 0.0
17/11:00pm 22.2 22.6 17.3 74 3.0 NNE 11 15 6 8 1012.3 - 0.0
17/10:45pm 22.3 23.1 17.3 73 3.1 N 9 15 5 8 1012.4 - 0.0
17/10:30pm 22.3 23.4 17.1 72 3.2 NNE 7 15 4 8 1012.4 - 0.0
17/10:15pm 22.7 23.0 17.1 70 3.5 NNE 11 15 6 8 1012.3 - 0.0
17/10:00pm 23.0 22.5 17.0 69 3.7 NNE 15 19 8 10 1012.2 - 0.0
17/09:45pm 23.1 22.6 16.8 67 3.9 NNE 15 22 8 12 1012.1 - 0.0
17/09:30pm 23.2 22.6 16.6 66 4.1 NNE 15 22 8 12 1012.0 - 0.0
17/09:15pm 23.3 23.4 16.4 65 4.2 NNE 11 17 6 9 1011.7 - 0.0
17/09:00pm 23.6 22.9 16.3 63 4.5 NNE 15 20 8 11 1011.4 - 0.0
17/08:45pm 23.8 23.0 16.2 62 4.7 NNE 15 26 8 14 1011.2 - 0.0
17/08:30pm 24.0 23.9 16.1 61 4.8 NNE 11 20 6 11 1011.0 - 0.0
17/08:15pm 24.3 23.5 16.1 60 5.0 NE 15 24 8 13 1010.9 - 0.0
17/08:00pm 24.5 24.1 16.1 59 5.1 NE 13 20 7 11 1010.7 - 0.0
17/07:45pm 25.0 24.5 15.8 56 5.6 NE 13 20 7 11 1010.5 - 0.0
17/07:30pm 25.4 24.4 15.7 55 5.9 NE 15 20 8 11 1010.3 - 0.0
17/07:15pm 25.9 24.8 15.4 52 6.4 NE 15 20 8 11 1010.1 - 0.0
17/07:00pm 26.3 24.4 15.1 50 6.8 NE 19 32 10 17 1009.9 - 0.0
17/06:45pm 26.6 23.6 14.9 48 7.1 NE 24 37 13 20 1009.8 - 0.0
17/06:30pm 26.8 23.8 14.8 47 7.3 NE 24 37 13 20 1009.8 - 0.0
17/06:15pm 27.3 24.7 14.9 46 7.5 NE 22 32 12 17 1009.8 - 0.0
17/06:00pm 28.0 25.5 15.2 45 7.8 ENE 22 32 12 17 1009.8 - 0.0
17/05:45pm 28.7 27.2 15.4 44 8.2 NE 17 30 9 16 1009.8 - 0.0
17/05:30pm 29.0 27.0 15.5 44 8.3 NE 20 28 11 15 1009.9 - 0.0
17/05:15pm 28.8 26.4 15.4 44 8.3 NE 22 30 12 16 1009.9 - 0.0
17/05:00pm 29.5 27.5 15.5 42 8.7 ENE 20 28 11 15 1010.0 - 0.0
17/04:45pm 29.5 27.6 15.3 42 8.8 NE 19 28 10 15 1010.0 - 0.0
17/04:30pm 29.9 27.9 15.5 41 8.9 ENE 20 28 11 15 1010.0 - 0.0
17/04:15pm 30.3 28.3 15.4 40 9.2 ENE 20 30 11 16 1010.1 - 0.0
17/04:00pm 30.2 28.0 15.0 39 9.4 ENE 20 26 11 14 1010.3 - 0.0
17/03:45pm 30.1 27.9 14.8 39 9.4 NE 20 28 11 15 1010.3 - 0.0
17/03:30pm 30.4 28.2 15.0 39 9.5 NE 20 30 11 16 1010.5 - 0.0
17/03:15pm 30.8 28.7 15.3 39 9.6 NE 20 28 11 15 1010.7 - 0.0
17/03:00pm 30.2 28.1 15.1 40 9.3 NE 20 30 11 16 1010.9 - 0.0
17/02:45pm 30.6 28.7 15.3 39 9.5 NE 19 24 10 13 1011.1 - 0.0
17/02:30pm 30.4 28.5 15.1 39 9.4 NE 19 26 10 14 1011.3 - 0.0
17/02:15pm 30.9 29.4 15.2 38 9.7 ENE 17 26 9 14 1011.4 - 0.0
17/02:00pm 30.9 29.2 14.8 37 9.9 NE 17 24 9 13 1011.6 - 0.0
17/01:45pm 30.7 29.9 14.1 36 10.1 NNE 11 22 6 12 1011.8 - 0.0
17/01:30pm 30.5 30.5 14.1 36 10.0 N 7 13 4 7 1012.0 - 0.0
17/01:15pm 29.9 29.9 14.2 38 9.5 N 7 13 4 7 1012.3 - 0.0
17/01:00pm 29.8 30.1 14.9 40 9.1 NNE 7 15 4 8 1012.6 - 0.0
17/12:45pm 29.2 29.0 14.7 41 8.8 N 9 15 5 8 1012.9 - 0.0
17/12:30pm 28.6 28.9 14.9 43 8.4 N 7 15 4 8 1013.1 - 0.0
17/12:15pm 28.2 28.5 15.1 44 8.0 NNW 7 15 4 8 1013.3 - 0.0
17/12:00pm 27.5 27.5 15.1 46 7.6 N 9 19 5 10 1013.6 - 0.0
17/11:45am 27.2 26.8 15.1 47 7.4 N 11 20 6 11 1013.9 - 0.0
17/11:30am 26.8 25.5 14.8 47 7.3 NNW 15 22 8 12 1014.1 - 0.0
17/11:15am 26.7 25.5 15.0 48 7.1 NW 15 26 8 14 1014.2 - 0.0
17/11:00am 26.2 25.0 15.1 50 6.7 NW 15 24 8 13 1014.3 - 0.0
17/10:45am 26.1 25.9 15.6 52 6.4 N 11 20 6 11 1014.4 - 0.0
17/10:30am 25.6 25.3 15.5 53 6.2 NNW 11 20 6 11 1014.5 - 0.0
17/10:15am 25.3 25.6 16.0 56 5.7 NNW 9 20 5 11 1014.5 - 0.0
17/10:00am 24.6 25.5 16.5 60 5.0 NW 7 13 4 7 1014.6 - 0.0
17/09:45am 24.0 25.1 17.1 65 4.3 WNW 7 15 4 8 1014.7 - 0.0
17/09:30am 23.0 23.6 16.8 68 3.8 WNW 9 13 5 7 1014.8 - 0.0
17/09:15am 22.5 23.1 16.9 70 3.4 WNW 9 11 5 6 1014.8 - 0.0
17/09:00am 22.2 23.6 17.3 74 3.0 WNW 6 9 3 5 1014.8 - 0.0
17/08:45am 21.5 22.8 17.1 76 2.7 WNW 6 9 3 5 1014.8 - 0.0
17/08:30am 20.8 22.1 17.0 79 2.3 WNW 6 11 3 6 1014.8 - 0.0
17/08:15am 20.4 21.4 16.9 80 2.1 WNW 7 11 4 6 1014.8 - 0.0
17/08:00am 20.3 21.4 17.0 81 2.0 NW 7 11 4 6 1014.8 - 0.0
17/07:45am 19.9 21.2 17.5 86 1.5 NW 7 11 4 6 1014.6 - 0.0
17/07:30am 18.8 19.6 17.3 91 0.9 NNW 9 11 5 6 1014.6 - 0.0
17/07:15am 17.5 18.2 16.0 91 0.9 NNW 7 11 4 6 1014.6 - 0.0
17/07:00am 17.0 16.7 15.5 91 0.9 N 11 13 6 7 1014.4 - 0.0
17/06:45am 16.9 16.2 15.4 91 0.9 N 13 15 7 8 1014.3 - 0.0
17/06:30am 16.7 15.9 15.2 91 0.9 N 13 15 7 8 1014.2 - 0.0
17/06:15am 16.6 15.7 14.9 90 1.0 N 13 15 7 8 1014.0 - 0.0
17/06:00am 16.7 16.2 15.0 90 1.0 N 11 15 6 8 1013.9 - 0.0
17/05:45am 16.9 17.2 15.1 89 1.1 NNW 7 9 4 5 1014.0 - 0.0
17/05:30am 17.1 17.1 15.3 89 1.1 NNW 9 11 5 6 1014.1 - 0.0
17/05:15am 17.2 17.3 15.5 90 1.0 NNW 9 11 5 6 1014.1 - 0.0
17/05:00am 17.1 17.1 15.2 88 1.1 NNW 9 11 5 6 1014.1 - 0.0
17/04:45am 17.1 17.1 15.1 88 1.2 NNW 9 11 5 6 1014.2 - 0.0
17/04:30am 17.3 17.6 15.1 87 1.3 NW 7 9 4 5 1014.3 - 0.0
17/04:15am 17.6 18.0 15.2 86 1.4 NW 7 9 4 5 1014.4 - 0.0
17/04:00am 18.2 18.6 15.4 84 1.7 NW 7 9 4 5 1014.5 - 0.0
17/03:45am 19.4 19.8 16.4 83 1.8 NW 9 11 5 6 1014.6 - 0.0
17/03:30am 19.1 19.2 16.6 85 1.5 NW 11 11 6 6 1014.7 - 0.0
17/03:15am 18.6 19.0 16.2 86 1.4 NW 9 11 5 6 1014.8 - 0.0
17/03:00am 18.6 18.9 16.1 85 1.5 NW 9 11 5 6 1014.9 - 0.0
17/02:45am 18.7 19.0 16.1 85 1.6 NW 9 13 5 7 1015.0 - 0.0
17/02:30am 18.8 19.1 16.1 84 1.6 NNW 9 11 5 6 1015.2 - 0.0
17/02:15am 19.0 18.9 16.1 83 1.7 NNW 11 13 6 7 1015.4 - 0.0
17/02:00am 19.3 19.4 16.4 83 1.7 NNW 11 13 6 7 1015.5 - 0.0
17/01:45am 19.2 18.9 16.5 84 1.6 NW 13 15 7 8 1015.8 - 0.0
17/01:30am 18.9 18.8 16.1 84 1.7 NNW 11 13 6 7 1016.1 - 0.0
17/01:15am 18.9 19.2 16.0 83 1.7 NNW 9 11 5 6 1016.3 - 0.0
17/01:00am 19.0 19.7 16.1 83 1.7 NNW 7 11 4 6 1016.4 - 0.0
17/12:45am 19.2 19.5 16.0 82 1.9 NNW 9 13 5 7 1016.6 - 0.0
17/12:30am 19.6 20.4 16.4 82 1.9 N 7 11 4 6 1016.7 - 0.0
17/12:15am 19.8 19.9 16.4 81 2.1 N 11 15 6 8 1016.9 - 0.0
17/12:00am 20.1 20.2 16.5 80 2.2 N 11 15 6 8 1017.0 - 0.0
 
Date/Time
EDT
Temp
°C
App
Temp
°C
Dew
Point
°C
Rel
Hum
%
Delta-T
°C
Wind Press
QNH
hPa
Press
MSL
hPa
Rain since
9am
mm
Dir  Spd
km/h
Gust
km/h
Spd
kts
Gust
kts
16/11:45pm 20.5 20.6 16.6 78 2.4 N 11 19 6 10 1017.0 - 0.0
16/11:30pm 20.8 21.1 16.9 78 2.4 NNW 11 15 6 8 1017.2 - 0.0
16/11:15pm 20.8 21.1 16.9 78 2.4 NNW 11 20 6 11 1017.2 - 0.0
16/11:00pm 20.9 21.1 16.8 77 2.5 N 11 19 6 10 1017.3 - 0.0
16/10:45pm 21.3 21.9 16.8 75 2.8 N 9 19 5 10 1017.5 - 0.0
16/10:30pm 21.4 21.7 16.9 75 2.8 N 11 17 6 9 1017.5 - 0.0
16/10:15pm 21.4 21.5 16.6 74 2.9 N 11 19 6 10 1017.6 - 0.0
16/10:00pm 21.6 21.7 16.6 73 3.1 N 11 15 6 8 1017.5 - 0.0
16/09:45pm 21.8 21.5 16.5 72 3.2 NNE 13 20 7 11 1017.4 - 0.0
16/09:30pm 22.0 21.3 16.4 70 3.4 NNE 15 20 8 11 1017.3 - 0.0
16/09:15pm 22.1 21.4 16.3 69 3.5 NNE 15 22 8 12 1017.2 - 0.0
16/09:00pm 22.2 21.4 16.1 68 3.7 NNE 15 22 8 12 1017.2 - 0.0
16/08:45pm 22.4 21.5 15.9 66 3.9 NNE 15 26 8 14 1017.2 - 0.0
16/08:30pm 22.4 21.4 15.6 65 4.1 NNE 15 24 8 13 1016.9 - 0.0
16/08:15pm 22.6 20.8 15.5 64 4.3 NNE 19 24 10 13 1016.8 - 0.0
16/08:00pm 22.8 21.0 15.6 64 4.3 NE 19 28 10 15 1016.7 - 0.0
16/07:45pm 23.0 21.1 15.3 62 4.6 NE 19 26 10 14 1016.8 - 0.0
16/07:30pm 23.2 21.1 14.7 58 5.1 NE 19 28 10 15 1016.6 - 0.0
16/07:15pm 23.4 21.1 14.2 56 5.4 NE 19 30 10 16 1016.6 - 0.0
16/07:00pm 23.6 21.0 13.8 54 5.8 NE 20 30 11 16 1016.6 - 0.0
16/06:45pm 23.8 21.2 13.7 53 5.9 NNE 20 28 11 15 1016.7 - 0.0
16/06:30pm 24.1 21.6 14.1 53 5.9 NNE 20 33 11 18 1016.6 - 0.0
16/06:15pm 24.6 22.4 14.9 54 5.8 NE 20 30 11 16 1016.7 - 0.0
16/06:00pm 25.2 22.6 15.0 53 6.2 ENE 22 32 12 17 1016.8 - 0.0
16/05:45pm 24.9 23.0 15.2 54 5.9 ENE 19 24 10 13 1016.9 - 0.0
16/05:30pm 24.8 22.2 14.8 53 6.0 ENE 22 32 12 17 1016.8 - 0.0
16/05:15pm 25.2 22.8 14.5 51 6.4 ENE 20 28 11 15 1016.8 - 0.0
16/05:00pm 25.4 23.1 14.2 50 6.7 ENE 19 30 10 16 1016.9 - 0.0
16/04:45pm 26.1 23.3 14.3 48 7.1 ENE 22 32 12 17 1017.0 - 0.0
16/04:30pm 26.4 24.0 14.4 47 7.2 ENE 20 28 11 15 1017.1 - 0.0
16/04:15pm 26.3 23.6 14.6 48 7.0 ENE 22 32 12 17 1017.1 - 0.0
16/04:00pm 26.7 24.3 14.5 47 7.3 NE 20 41 11 22 1017.2 - 0.0
16/03:45pm 26.9 24.5 14.5 46 7.5 ENE 20 28 11 15 1017.4 - 0.0
16/03:30pm 26.9 25.4 14.1 45 7.7 NE 15 24 8 13 1017.6 - 0.0
16/03:15pm 27.2 25.7 14.1 44 7.9 NE 15 24 8 13 1017.8 - 0.0
16/03:00pm 27.6 25.7 14.3 44 8.0 NE 17 30 9 16 1018.1 - 0.0
16/02:45pm 27.1 25.2 14.1 44 7.8 NNE 17 32 9 17 1018.3 - 0.0
16/02:30pm 26.6 24.2 13.7 45 7.7 E 19 30 10 16 1018.6 - 0.0
16/02:15pm 26.9 26.0 13.7 44 7.9 NE 11 20 6 11 1018.7 - 0.0
16/02:00pm 27.0 25.3 13.7 44 7.9 NE 15 24 8 13 1018.9 - 0.0
16/01:45pm 26.8 25.1 13.7 44 7.8 ENE 15 24 8 13 1019.0 - 0.0
16/01:30pm 26.5 25.0 13.2 43 7.8 ENE 13 24 7 13 1019.1 - 0.0
16/01:15pm 27.0 25.6 13.3 42 8.1 NE 13 24 7 13 1019.3 - 0.0
16/01:00pm 26.3 24.8 13.2 44 7.7 ENE 13 24 7 13 1019.5 - 0.0
16/12:45pm 25.9 25.7 13.1 45 7.5 ENE 6 19 3 10 1019.7 - 0.0
16/12:30pm 26.2 24.7 13.0 44 7.7 NE 13 20 7 11 1020.0 - 0.0
16/12:15pm 26.1 25.0 13.2 44 7.6 N 11 22 6 12 1020.3 - 0.0
16/12:00pm 25.3 23.8 13.1 46 7.1 N 13 24 7 13 1020.5 - 0.0
16/11:45am 25.0 24.4 13.5 48 6.8 NNW 9 20 5 11 1020.8 - 0.0
16/11:30am 25.2 24.9 14.4 51 6.5 NNE 9 26 5 14 1021.0 - 0.0
16/11:15am 24.4 23.7 14.3 53 6.0 N 11 20 6 11 1021.2 - 0.0
16/11:00am 23.9 23.2 14.3 55 5.7 N 11 24 6 13 1021.4 - 0.0
16/10:45am 24.3 23.7 14.7 55 5.7 N 11 19 6 10 1021.5 - 0.0
16/10:30am 23.8 23.6 14.7 56 5.4 N 9 19 5 10 1021.6 - 0.0
16/10:15am 23.4 23.2 14.6 57 5.2 N 9 19 5 10 1021.6 - 0.0
16/10:00am 23.5 23.3 14.7 57 5.2 N 9 17 5 9 1021.7 - 0.0
16/09:45am 23.1 23.2 14.5 58 5.1 N 7 15 4 8 1021.7 - 0.0
16/09:30am 23.2 24.1 15.0 60 4.9 N 4 11 2 6 1021.7 - 0.0
16/09:15am 22.6 23.0 14.7 61 4.7 NNW 6 13 3 7 1021.7 - 0.0
16/09:00am 22.4 22.8 14.8 62 4.5 WNW 6 11 3 6 1021.7 - 0.0
16/08:45am 22.0 22.8 14.8 63 4.3 WNW 4 7 2 4 1021.7 - 0.0
16/08:30am 21.4 22.4 15.3 68 3.6 WSW 4 7 2 4 1021.8 - 0.0
16/08:15am 20.6 21.1 14.9 70 3.4 WSW 6 7 3 4 1021.8 - 0.0
16/08:00am 19.4 19.6 14.6 74 2.8 SW 7 9 4 5 1021.7 - 0.0
16/07:45am 18.7 18.8 14.4 76 2.5 SW 7 9 4 5 1021.6 - 0.0
16/07:30am 17.4 17.0 14.0 80 1.9 SW 9 9 5 5 1021.5 - 0.0
16/07:15am 16.4 16.2 13.5 83 1.6 SW 7 9 4 5 1021.5 - 0.0
16/07:00am 16.0 15.3 13.1 83 1.6 SW 9 9 5 5 1021.4 - 0.0
16/06:45am 16.4 15.7 13.2 81 1.8 SW 9 11 5 6 1021.3 - 0.0
16/06:30am 16.6 16.0 13.5 82 1.8 SW 9 11 5 6 1021.2 - 0.0
16/06:15am 16.5 15.9 13.5 82 1.7 SW 9 11 5 6 1021.1 - 0.0
16/06:00am 16.3 15.6 13.3 82 1.7 SW 9 11 5 6 1021.0 - 0.0
16/05:45am 16.5 16.2 13.2 81 1.9 SW 7 11 4 6 1021.1 - 0.0
16/05:30am 16.7 15.7 13.5 81 1.8 WSW 11 13 6 7 1021.0 - 0.0
16/05:15am 16.5 15.5 13.3 81 1.8 SW 11 11 6 6 1021.1 - 0.0
16/05:00am 16.4 15.4 13.3 82 1.7 SW 11 11 6 6 1021.0 - 0.0
16/04:45am 16.3 15.2 13.2 82 1.7 SW 11 13 6 7 1021.1 - 0.0
16/04:30am 16.2 15.2 13.3 83 1.6 WSW 11 13 6 7 1021.3 - 0.0
16/04:15am 16.0 15.3 13.2 83 1.6 WSW 9 11 5 6 1021.4 - 0.0
16/04:00am 15.8 15.4 12.9 83 1.6 W 7 11 4 6 1021.4 - 0.0
16/03:45am 16.0 15.6 13.0 82 1.7 W 7 11 4 6 1021.4 - 0.0
16/03:30am 16.1 15.9 13.0 82 1.7 W 6 9 3 5 1021.6 - 0.0
16/03:15am 16.2 16.0 13.0 81 1.8 W 6 7 3 4 1021.7 - 0.0
16/03:00am 16.4 16.2 13.0 80 1.9 W 6 7 3 4 1021.9 - 0.0
16/02:45am 16.6 16.4 13.0 79 2.0 W 6 7 3 4 1022.1 - 0.0
16/02:30am 16.9 16.8 13.2 79 2.1 WNW 6 7 3 4 1022.1 - 0.0
16/02:15am 16.8 16.7 13.2 79 2.0 WNW 6 7 3 4 1022.3 - 0.0
16/02:00am 16.7 16.5 13.1 79 2.0 WNW 6 7 3 4 1022.4 - 0.0
16/01:45am 16.5 16.3 13.1 80 1.9 WNW 6 7 3 4 1022.6 - 0.0
16/01:30am 16.3 16.1 12.9 80 1.9 WNW 6 7 3 4 1022.8 - 0.0
16/01:15am 16.2 15.9 12.7 80 1.9 NW 6 7 3 4 1023.0 - 0.0
16/01:00am 16.3 16.1 12.9 80 1.9 NW 6 7 3 4 1023.2 - 0.0
16/12:45am 16.3 16.0 12.7 79 2.0 NW 6 6 3 3 1023.3 - 0.0
16/12:30am 16.5 16.2 12.7 78 2.1 NW 6 6 3 3 1023.4 - 0.0
16/12:15am 16.8 17.0 12.9 78 2.2 NW 4 6 2 3 1023.5 - 0.0
16/12:00am 17.2 17.0 12.9 76 2.4 NW 6 6 3 3 1023.6 - 0.0
 
Date/Time
EDT
Temp
°C
App
Temp
°C
Dew
Point
°C
Rel
Hum
%
Delta-T
°C
Wind Press
QNH
hPa
Press
MSL
hPa
Rain since
9am
mm
Dir  Spd
km/h
Gust
km/h
Spd
kts
Gust
kts
15/11:45pm 17.6 17.8 13.1 75 2.5 NNW 4 6 2 3 1023.7 - 0.0
15/11:30pm 17.9 17.7 13.1 73 2.7 N 6 6 3 3 1023.8 - 0.0
15/11:15pm 18.2 18.1 13.2 72 2.8 NNE 6 7 3 4 1023.8 - 0.0
15/11:00pm 18.4 18.1 13.2 71 3.0 NNE 7 9 4 5 1023.9 - 0.0
15/10:45pm 18.8 18.1 13.1 69 3.2 NNE 9 11 5 6 1024.0 - 0.0
15/10:30pm 19.4 19.0 13.1 67 3.6 NNE 7 9 4 5 1024.1 - 0.0
15/10:15pm 20.2 19.6 13.4 65 3.9 NNE 9 13 5 7 1024.1 - 0.0
15/10:00pm 20.3 19.3 13.4 64 4.0 NNE 11 15 6 8 1024.0 - 0.0
15/09:45pm 20.5 19.5 13.4 63 4.1 NE 11 15 6 8 1023.8 - 0.0
15/09:30pm 20.7 19.7 13.3 62 4.3 NE 11 19 6 10 1023.7 - 0.0
15/09:15pm 20.9 19.5 13.3 62 4.4 NE 13 19 7 10 1023.5 - 0.0
15/09:00pm 20.9 19.4 13.2 61 4.4 NE 13 19 7 10 1023.4 - 0.0
15/08:45pm 21.1 20.0 13.1 60 4.6 NE 11 19 6 10 1023.3 - 0.0
15/08:30pm 21.1 20.0 13.2 60 4.5 NE 11 17 6 9 1023.1 - 0.0
15/08:15pm 21.3 20.2 13.1 59 4.7 NE 11 19 6 10 1022.8 - 0.0
15/08:00pm 21.7 19.8 13.0 57 5.0 ENE 15 22 8 12 1022.7 - 0.0
15/07:45pm 21.9 19.5 12.8 56 5.2 NE 17 24 9 13 1022.6 - 0.0
15/07:30pm 22.2 20.2 12.7 55 5.4 ENE 15 24 8 13 1022.5 - 0.0
15/07:15pm 22.6 19.8 12.5 53 5.8 NE 19 24 10 13 1022.3 - 0.0
15/07:00pm 23.1 20.7 12.8 52 5.9 ENE 17 28 9 15 1022.0 - 0.0
15/06:45pm 23.5 20.5 12.6 50 6.3 NE 20 28 11 15 1021.8 - 0.0
15/06:30pm 23.9 21.6 12.9 50 6.4 NE 17 24 9 13 1021.7 - 0.0
15/06:15pm 24.2 21.5 13.0 49 6.5 NE 19 32 10 17 1021.6 - 0.0
15/06:00pm 24.5 21.9 13.3 49 6.6 ENE 19 28 10 15 1021.7 - 0.0
15/05:45pm 24.8 22.2 13.2 48 6.8 ENE 19 26 10 14 1021.7 - 0.0
15/05:30pm 25.1 22.4 13.5 48 6.8 ENE 20 32 11 17 1021.7 - 0.0
15/05:15pm 25.1 22.6 13.4 48 6.9 E 19 28 10 15 1021.7 - 0.0
15/05:00pm 24.8 21.9 12.8 47 7.0 E 20 30 11 16 1021.7 - 0.0
15/04:45pm 25.2 22.5 13.0 46 7.1 E 19 30 10 16 1021.7 - 0.0
15/04:30pm 25.4 22.8 13.1 46 7.2 ENE 19 28 10 15 1021.7 - 0.0
15/04:15pm 25.8 22.9 12.9 44 7.5 E 20 28 11 15 1021.7 - 0.0
15/04:00pm 25.8 23.0 12.7 44 7.6 ENE 19 28 10 15 1021.7 - 0.0
15/03:45pm 26.0 23.1 12.4 42 7.9 ENE 19 32 10 17 1021.7 - 0.0
15/03:30pm 26.1 23.1 12.4 42 8.0 ENE 20 35 11 19 1021.8 - 0.0
15/03:15pm 26.0 22.8 11.8 41 8.2 NE 20 32 11 17 1021.9 - 0.0
15/03:00pm 26.3 23.7 11.9 40 8.3 NE 17 24 9 13 1022.1 - 0.0
15/02:45pm 26.4 24.3 12.4 41 8.1 NE 15 24 8 13 1022.2 - 0.0
15/02:30pm 26.3 24.1 12.2 41 8.2 ENE 15 26 8 14 1022.4 - 0.0
15/02:15pm 25.9 23.7 12.1 42 8.0 NNE 15 24 8 13 1022.6 - 0.0
15/02:00pm 25.9 23.8 12.3 42 7.9 NE 15 30 8 16 1022.7 - 0.0
15/01:45pm 25.7 23.7 12.6 44 7.6 NE 15 24 8 13 1022.7 - 0.0
15/01:30pm 25.6 23.6 12.6 44 7.6 NE 15 24 8 13 1022.8 - 0.0
15/01:15pm 25.5 23.9 12.7 45 7.5 ENE 13 20 7 11 1022.8 - 0.0
15/01:00pm 25.4 24.5 12.5 44 7.5 ENE 9 19 5 10 1023.0 - 0.0
15/12:45pm 25.9 24.3 12.8 44 7.7 NE 13 22 7 12 1023.1 - 0.0
15/12:30pm 25.2 24.2 13.5 48 6.9 NE 11 20 6 11 1023.4 - 0.0
15/12:15pm 24.1 23.7 12.9 49 6.5 E 7 11 4 6 1023.6 - 0.0
15/12:00pm 24.4 23.3 13.1 49 6.6 NNE 11 20 6 11 1023.7 - 0.0
15/11:45am 24.4 24.3 13.9 52 6.2 - 7 17 4 9 1023.9 - 0.0
15/11:30am 24.3 24.2 13.8 52 6.2 NW 7 13 4 7 1024.1 - 0.0
15/11:15am 23.7 23.7 13.7 53 5.9 NW 6 9 3 5 1024.3 - 0.0
15/11:00am 23.1 23.2 13.9 56 5.4 W 6 11 3 6 1024.3 - 0.0
15/10:45am 23.3 22.8 13.9 55 5.5 NNW 9 13 5 7 1024.2 - 0.0
15/10:30am 23.2 22.6 13.6 54 5.6 N 9 17 5 9 1024.3 - 0.0
15/10:15am 23.4 23.1 14.4 57 5.3 N 9 17 5 9 1024.2 - 0.0
15/10:00am 22.5 22.4 13.9 58 5.0 NNW 7 11 4 6 1024.2 - 0.0
15/09:45am 22.6 22.8 14.2 59 5.0 NW 6 11 3 6 1024.2 - 0.0
15/09:30am 22.1 22.1 14.1 60 4.7 NW 7 11 4 6 1024.0 - 0.0
15/09:15am 21.5 21.6 13.8 61 4.5 NW 6 9 3 5 1023.9 - 0.0
15/09:00am 21.6 22.0 13.6 60 4.6 WNW 4 7 2 4 1023.9 - 0.0
15/08:45am 21.9 22.1 14.3 62 4.5 W 6 7 3 4 1023.8 - 0.0
15/08:30am 21.4 22.2 14.9 66 3.9 WSW 4 7 2 4 1023.7 - 0.0
15/08:15am 20.1 20.9 14.7 71 3.2 W 4 7 2 4 1023.6 - 0.0
15/08:00am 18.6 18.8 14.3 76 2.5 WSW 6 7 3 4 1023.5 - 0.0
15/07:45am 17.1 17.2 13.8 81 1.9 WSW 6 7 3 4 1023.4 - 0.0
15/07:30am 16.1 16.0 13.3 83 1.6 WSW 6 7 3 4 1023.3 - 0.0
15/07:15am 15.4 15.3 13.2 87 1.2 W 6 7 3 4 1023.2 - 0.0
15/07:00am 14.5 14.1 12.4 87 1.2 WSW 6 7 3 4 1023.1 - 0.0
15/06:45am 14.3 13.8 12.2 87 1.1 WSW 6 7 3 4 1023.0 - 0.0
15/06:30am 14.4 13.8 12.2 87 1.2 WSW 7 7 4 4 1022.9 - 0.0
15/06:15am 14.7 14.2 12.5 87 1.2 W 7 7 4 4 1022.7 - 0.0
15/06:00am 14.7 14.3 12.5 87 1.2 W 6 11 3 6 1022.6 - 0.0
15/05:45am 14.5 14.1 12.3 87 1.2 W 6 7 3 4 1022.5 - 0.0
15/05:30am 14.4 14.0 12.3 87 1.1 W 6 7 3 4 1022.4 - 0.0
15/05:15am 14.5 14.1 12.4 87 1.2 W 6 7 3 4 1022.4 - 0.0
15/05:00am 14.3 13.8 12.1 87 1.2 W 6 7 3 4 1022.4 - 0.0
15/04:45am 14.4 13.9 12.2 87 1.2 W 6 6 3 3 1022.3 - 0.0
15/04:30am 14.4 13.9 12.2 87 1.2 WSW 6 7 3 4 1022.3 - 0.0
15/04:15am 14.3 13.8 12.1 87 1.2 WSW 6 7 3 4 1022.4 - 0.0
15/04:00am 14.4 13.9 12.1 86 1.3 WSW 6 7 3 4 1022.3 - 0.0
15/03:45am 14.6 14.1 12.2 85 1.3 W 6 7 3 4 1022.2 - 0.0
15/03:30am 14.6 14.5 12.2 85 1.3 W 4 6 2 3 1022.1 - 0.0
15/03:15am 14.6 14.5 12.1 85 1.4 W 4 6 2 3 1022.1 - 0.0
15/03:00am 14.8 14.7 12.1 84 1.5 W 4 6 2 3 1022.1 - 0.0
15/02:45am 15.1 15.1 12.3 83 1.5 NW 4 6 2 3 1022.1 - 0.0
15/02:30am 15.3 15.3 12.4 83 1.6 NNW 4 6 2 3 1022.0 - 0.0
15/02:15am 15.5 15.5 12.4 82 1.7 N 4 7 2 4 1021.9 - 0.0
15/02:00am 15.7 15.7 12.5 81 1.8 N 4 6 2 3 1022.0 - 0.0
15/01:45am 15.9 15.9 12.5 80 1.9 N 4 6 2 3 1022.1 - 0.0

Latest Capital City Observations: Canberra | Sydney | Melbourne | Brisbane | Adelaide | Perth | Hobart | Darwin

Other Formats:

Comma delimited format used in spreadsheet applications
http://www.bom.gov.au/fwo/IDN60901/IDN60901.95757.axf

JavaScript Object Notation format (JSON) in row-major order
http://www.bom.gov.au/fwo/IDN60901/IDN60901.95757.json